^^
Saratoga-Weather Station Historical Data
Daily Summary for September 29, 2020 Units:  Metric    English   Both
Daily Weekly Monthly Yearly Custom
  High: Low: Average:
Temperature: 23.5 °C °C 19.3 °C
Dew Point: 8.2 °C °C 6.4 °C
Humidity: 63% % 43%
Wind Speed: 14.3km/h km/h 3.6km/h
Wind Gust: 22.5km/h - -
Wind- - ESE
Pressure: 1026.4 hPa 0.0 hPa -
Precipitation: 0.0 mm    
Historical Graphs
 
 
Tabular Data for September 29, 2020
Time Temperature Dew Point Pressure Wind Wind Speed Wind Gust Humidity Rainfall Rate (Hourly) solar
00:05 14.6 °C 4.6 °C 1026.1 hPa ESE 1.4 km/h 3.2 km/h 51% 0.0 mm 0 W/m2
00:10 14.6 °C 4 °C 1026.1 hPa NNE 1.4 km/h 1.6 km/h 49% 0.0 mm 0 W/m2
00:30 14.3 °C 4.8 °C 1026.4 hPa WSW 1.4 km/h 3.2 km/h 53% 0.0 mm 0 W/m2
00:35 14 °C 5.1 °C 1026.1 hPa SW 3.2 km/h 4.8 km/h 55% 0.0 mm 0 W/m2
00:40 13.7 °C 5.1 °C 1026.4 hPa Calm   1.6 km/h 56% 0.0 mm 0 W/m2
00:45 13.4 °C 5.1 °C 1026.4 hPa SW 1.4 km/h 1.6 km/h 57% 0.0 mm 0 W/m2
00:50 13.2 °C 4.9 °C 1026.4 hPa Calm     57% 0.0 mm 0 W/m2
00:55 12.9 °C 5.1 °C 1026.1 hPa Calm   1.6 km/h 59% 0.0 mm 0 W/m2
01:00 12.8 °C 4.7 °C 1026.1 hPa SSE 1.4 km/h 1.6 km/h 58% 0.0 mm 0 W/m2
01:10 12.6 °C 4.8 °C 1026.1 hPa Calm   3.2 km/h 59% 0.0 mm 0 W/m2
01:15 12.4 °C 4.9 °C 1026.1 hPa SSE 1.4 km/h 3.2 km/h 60% 0.0 mm 0 W/m2
01:20 12.2 °C 4.7 °C 1026.1 hPa Calm   1.6 km/h 60% 0.0 mm 0 W/m2
07:35 11.8 °C 5 °C 1025.7 hPa Calm   3.2 km/h 63% 0.0 mm 39 W/m2
07:40 11.9 °C 5.1 °C 1025.7 hPa NNE 1.4 km/h 4.8 km/h 63% 0.0 mm 167 W/m2
07:45 12.2 °C 5.1 °C 1025.7 hPa NNE 1.4 km/h 6.4 km/h 62% 0.0 mm 227 W/m2
07:50 12.6 °C 5.3 °C 1025.7 hPa North 1.4 km/h 3.2 km/h 61% 0.0 mm 244 W/m2
07:55 12.9 °C 5.6 °C 1025.7 hPa Calm   6.4 km/h 61% 0.0 mm 267 W/m2
08:00 13.5 °C 5.6 °C 1025.7 hPa ESE 4.7 km/h 4.8 km/h 59% 0.0 mm 279 W/m2
08:05 13.8 °C 5.9 °C 1025.7 hPa Calm   6.4 km/h 59% 0.0 mm 295 W/m2
08:10 14 °C 5.9 °C 1025.7 hPa East 3.2 km/h 3.2 km/h 58% 0.0 mm 309 W/m2
08:19 14.4 °C 6 °C 1025.7 hPa ENE 1.4 km/h 8 km/h 57% 0.0 mm 323 W/m2
08:23 °C °C 0.0 hPa Calm     % 0.0 mm W/m2
08:32 °C °C 0.0 hPa Calm     % 0.0 mm W/m2
08:42 °C °C 0.0 hPa Calm     % 0.0 mm W/m2
08:46 15.3 °C 6.6 °C 1025.7 hPa East 4.7 km/h 6.4 km/h 56% 0.0 mm 408 W/m2
08:50 15.6 °C 6.6 °C 1025.7 hPa ENE 7.9 km/h 12.9 km/h 55% 0.0 mm 418 W/m2
08:55 15.8 °C 6.5 °C 1025.7 hPa SE 3.2 km/h 9.7 km/h 54% 0.0 mm 432 W/m2
09:01 16.1 °C 6.8 °C 1025.7 hPa NW 1.4 km/h 4.8 km/h 54% 0.0 mm 446 W/m2
09:06 16.2 °C 6.3 °C 1025.7 hPa ENE 3.2 km/h 12.9 km/h 52% 0.0 mm 461 W/m2
09:11 16.3 °C 6.7 °C 1025.4 hPa ENE 3.2 km/h 3.2 km/h 53% 0.0 mm 476 W/m2
09:16 16.8 °C 7.2 °C 1025.4 hPa ENE 7.9 km/h 14.5 km/h 53% 0.0 mm 490 W/m2
09:21 17.1 °C 6.6 °C 1025.4 hPa North 1.4 km/h 11.3 km/h 50% 0.0 mm 501 W/m2
09:26 17.3 °C 7.1 °C 1025.4 hPa ENE 6.4 km/h 6.4 km/h 51% 0.0 mm 517 W/m2
09:31 17.5 °C 7 °C 1025.4 hPa East 1.4 km/h 12.9 km/h 50% 0.0 mm 527 W/m2
09:36 17.7 °C 7.1 °C 1025.4 hPa SE 4.7 km/h 11.3 km/h 50% 0.0 mm 540 W/m2
09:41 17.8 °C 7.2 °C 1025.4 hPa ESE 13 km/h 12.9 km/h 50% 0.0 mm 554 W/m2
09:46 17.8 °C 6.9 °C 1025.4 hPa ENE 6.4 km/h 16.1 km/h 49% 0.0 mm 564 W/m2
09:51 17.8 °C 6.9 °C 1025.4 hPa NE 4.7 km/h 8 km/h 49% 0.0 mm 573 W/m2
09:56 18.2 °C 7.6 °C 1025.4 hPa East 13 km/h 14.5 km/h 50% 0.0 mm 547 W/m2
10:01 18.4 °C 6.9 °C 1025.4 hPa East 4.7 km/h 11.3 km/h 47% 0.0 mm 69 W/m2
10:06 18.5 °C 7 °C 1025.4 hPa NE 3.2 km/h 12.9 km/h 47% 0.0 mm 118 W/m2
10:11 18.7 °C 6.5 °C 1025.4 hPa North 6.4 km/h 9.7 km/h 45% 0.0 mm 622 W/m2
10:16 18.7 °C 6.8 °C 1025.4 hPa ENE 4.7 km/h 16.1 km/h 46% 0.0 mm 635 W/m2
10:21 18.7 °C 6.8 °C 1025.4 hPa East 4.7 km/h 19.3 km/h 46% 0.0 mm 645 W/m2
10:26 18.7 °C 6.2 °C 1025.4 hPa ENE 4.7 km/h 12.9 km/h 44% 0.0 mm 652 W/m2
10:31 18.8 °C 6.6 °C 1025.1 hPa ENE 4.7 km/h 19.3 km/h 45% 0.0 mm 663 W/m2
10:36 19.1 °C 6.9 °C 1025.1 hPa ENE 1.4 km/h 17.7 km/h 45% 0.0 mm 691 W/m2
10:41 19.4 °C 7.2 °C 1025.1 hPa SE 1.4 km/h 9.7 km/h 45% 0.0 mm 696 W/m2
10:46 19.5 °C 6.9 °C 1025.1 hPa NE 3.2 km/h 14.5 km/h 44% 0.0 mm 708 W/m2
10:51 19.4 °C 6.8 °C 1025.1 hPa ENE 9.7 km/h 9.7 km/h 44% 0.0 mm 714 W/m2
10:56 19.6 °C 7 °C 1025.1 hPa ESE 13 km/h 22.5 km/h 44% 0.0 mm 731 W/m2
11:01 19.7 °C 7.1 °C 1025.1 hPa SE 6.4 km/h 9.7 km/h 44% 0.0 mm 719 W/m2
11:07 19.7 °C 6.4 °C 1025.1 hPa ENE 6.4 km/h 14.5 km/h 42% 0.0 mm 735 W/m2
11:12 19.4 °C 6.5 °C 1025.1 hPa SE 4.7 km/h 11.3 km/h 43% 0.0 mm 749 W/m2
11:17 19.4 °C 6.8 °C 1025.1 hPa SE 3.2 km/h 4.8 km/h 44% 0.0 mm 752 W/m2
11:22 19.4 °C 6.5 °C 1025.1 hPa NE 4.7 km/h 14.5 km/h 43% 0.0 mm 784 W/m2
11:27 19.3 °C 7.1 °C 1025.1 hPa ENE 1.4 km/h 12.9 km/h 45% 0.0 mm 814 W/m2
11:32 19.6 °C 7.3 °C 1025.1 hPa ESE 6.4 km/h 8 km/h 45% 0.0 mm 812 W/m2
11:37 19.6 °C 6.7 °C 1025.1 hPa ENE 4.7 km/h 19.3 km/h 43% 0.0 mm 230 W/m2
11:42 19.7 °C 6.8 °C 1024.7 hPa ENE 1.4 km/h 12.9 km/h 43% 0.0 mm 814 W/m2
11:47 20.1 °C 7.1 °C 1024.7 hPa ESE 4.7 km/h 17.7 km/h 43% 0.0 mm 828 W/m2
11:52 20.5 °C 7.1 °C 1024.7 hPa SSE 1.4 km/h 8 km/h 42% 0.0 mm 837 W/m2
11:57 20.7 °C 7 °C 1024.7 hPa NE 6.4 km/h 22.5 km/h 41% 0.0 mm 830 W/m2
12:02 20.4 °C 6.3 °C 1024.7 hPa ENE 7.9 km/h 14.5 km/h 40% 0.0 mm 837 W/m2
12:07 20.3 °C 6.3 °C 1024.7 hPa ESE 1.4 km/h 22.5 km/h 40% 0.0 mm 860 W/m2
12:12 20.5 °C 7.5 °C 1024.7 hPa East 7.9 km/h 9.7 km/h 43% 0.0 mm 860 W/m2
12:17 20.8 °C 6.3 °C 1024.7 hPa ENE 9.7 km/h 9.7 km/h 39% 0.0 mm 856 W/m2
12:22 20.7 °C 6.6 °C 1024.7 hPa SSE 6.4 km/h 14.5 km/h 40% 0.0 mm 891 W/m2
12:27 20.9 °C 6.8 °C 1024.4 hPa SE 4.7 km/h 16.1 km/h 40% 0.0 mm 881 W/m2
12:32 21.1 °C 7 °C 1024.4 hPa ENE 6.4 km/h 12.9 km/h 40% 0.0 mm 882 W/m2
12:37 21.3 °C 6.8 °C 1024.4 hPa SSE 3.2 km/h 8 km/h 39% 0.0 mm 884 W/m2
12:42 21.4 °C 6.5 °C 1024.4 hPa NE 4.7 km/h 11.3 km/h 38% 0.0 mm 879 W/m2
12:47 21.5 °C 7 °C 1024.0 hPa SE 6.4 km/h 6.4 km/h 39% 0.0 mm 884 W/m2
12:52 21.6 °C 6.7 °C 1024.0 hPa Calm   11.3 km/h 38% 0.0 mm 886 W/m2
12:57 21.6 °C 6.7 °C 1024.0 hPa ESE 13 km/h 12.9 km/h 38% 0.0 mm 888 W/m2
13:02 21.6 °C 6.7 °C 1024.0 hPa ESE 9.7 km/h 19.3 km/h 38% 0.0 mm 895 W/m2
13:07 21.6 °C 6.7 °C 1024.0 hPa SW 3.2 km/h 6.4 km/h 38% 0.0 mm 896 W/m2
13:12 21.7 °C 6.8 °C 1024.0 hPa NE 1.4 km/h 19.3 km/h 38% 0.0 mm 926 W/m2
13:17 21.4 °C 6.1 °C 1024.0 hPa NE 6.4 km/h 16.1 km/h 37% 0.0 mm 188 W/m2
13:22 20.9 °C 6 °C 1023.7 hPa ESE 1.4 km/h 9.7 km/h 38% 0.0 mm 241 W/m2
13:27 20.9 °C 7.2 °C 1023.7 hPa SE 3.2 km/h 11.3 km/h 41% 0.0 mm 858 W/m2
13:32 21.3 °C 8.2 °C 1023.7 hPa North 3.2 km/h 4.8 km/h 43% 0.0 mm 914 W/m2
13:37 21.7 °C 6.8 °C 1023.7 hPa SE 1.4 km/h 1.6 km/h 38% 0.0 mm 928 W/m2
13:43 22.1 °C 7.5 °C 1023.7 hPa East 7.9 km/h 12.9 km/h 39% 0.0 mm 942 W/m2
13:48 22.1 °C 6.3 °C 1023.7 hPa ENE 6.4 km/h 12.9 km/h 36% 0.0 mm 953 W/m2
13:53 21.9 °C 6.5 °C 1023.7 hPa SSE 3.2 km/h 17.7 km/h 37% 0.0 mm 891 W/m2
13:58 21.8 °C 7.2 °C 1023.4 hPa NE 4.7 km/h 9.7 km/h 39% 0.0 mm 900 W/m2
14:03 21.9 °C 7.3 °C 1023.4 hPa NE 6.4 km/h 17.7 km/h 39% 0.0 mm 918 W/m2
14:08 22.1 °C 7.5 °C 1023.4 hPa East 1.4 km/h 12.9 km/h 39% 0.0 mm 1037 W/m2
14:13 22.3 °C 7.3 °C 1023.4 hPa SE 3.2 km/h 16.1 km/h 38% 0.0 mm 830 W/m2
14:18 22.3 °C 6.5 °C 1023.4 hPa NW 1.4 km/h 6.4 km/h 36% 0.0 mm 960 W/m2
14:23 22.5 °C 6.7 °C 1023.4 hPa East 3.2 km/h 11.3 km/h 36% 0.0 mm 1041 W/m2
14:28 22.7 °C 7.3 °C 1023.4 hPa WNW 1.4 km/h 9.7 km/h 37% 0.0 mm 1005 W/m2
14:33 22.7 °C 6.9 °C 1023.4 hPa NE 6.4 km/h 16.1 km/h 36% 0.0 mm 993 W/m2
14:38 22.1 °C 6.7 °C 1023.0 hPa ESE 4.7 km/h 12.9 km/h 37% 0.0 mm 1039 W/m2
14:43 22.1 °C 6.3 °C 1023.0 hPa ESE 13 km/h 16.1 km/h 36% 0.0 mm 937 W/m2
14:48 22.2 °C 6.4 °C 1023.0 hPa North 4.7 km/h 9.7 km/h 36% 0.0 mm 872 W/m2
14:53 22.4 °C 6.2 °C 1023.0 hPa NE 1.4 km/h 8 km/h 35% 0.0 mm 867 W/m2
14:58 22.3 °C 6.5 °C 1022.7 hPa NE 4.7 km/h 11.3 km/h 36% 0.0 mm 872 W/m2
15:03 22.3 °C 6.9 °C 1022.7 hPa NNE 3.2 km/h 12.9 km/h 37% 0.0 mm 870 W/m2
15:08 22.6 °C 6.8 °C 1023.0 hPa ENE 4.7 km/h 16.1 km/h 36% 0.0 mm 853 W/m2
15:13 22.6 °C 6.4 °C 1022.7 hPa NNE 7.9 km/h 14.5 km/h 35% 0.0 mm 851 W/m2
15:18 22.7 °C 6.9 °C 1022.7 hPa East 6.4 km/h 11.3 km/h 36% 0.0 mm 837 W/m2
15:23 22.7 °C 6.9 °C 1022.7 hPa East 1.4 km/h 12.9 km/h 36% 0.0 mm 835 W/m2
15:28 22.8 °C 7.7 °C 1022.4 hPa East 9.7 km/h 9.7 km/h 38% 0.0 mm 816 W/m2
15:33 22.8 °C 7.3 °C 1022.7 hPa NE 7.9 km/h 12.9 km/h 37% 0.0 mm 726 W/m2
15:38 22.8 °C 6.5 °C 1022.4 hPa NE 1.4 km/h 8 km/h 35% 0.0 mm 812 W/m2
15:44 22.9 °C 6.6 °C 1022.4 hPa ESE 3.2 km/h 9.7 km/h 35% 0.0 mm 807 W/m2
15:49 23 °C 6.7 °C 1022.4 hPa ENE 1.4 km/h 11.3 km/h 35% 0.0 mm 784 W/m2
15:54 22.9 °C 7 °C 1022.4 hPa SSE 9.7 km/h 12.9 km/h 36% 0.0 mm 793 W/m2
15:59 22.9 °C 6.6 °C 1022.4 hPa ENE 3.2 km/h 11.3 km/h 35% 0.0 mm 777 W/m2
16:04 22.9 °C 6.6 °C 1022.0 hPa ESE 3.2 km/h 4.8 km/h 35% 0.0 mm 775 W/m2
16:09 23 °C 7.5 °C 1022.0 hPa East 1.4 km/h 14.5 km/h 37% 0.0 mm 752 W/m2
16:14 23.1 °C 6.8 °C 1022.0 hPa NE 4.7 km/h 20.9 km/h 35% 0.0 mm 749 W/m2
16:19 23.2 °C 7.7 °C 1022.0 hPa SSE 4.7 km/h 9.7 km/h 37% 0.0 mm 733 W/m2
16:24 23.2 °C 7.3 °C 1022.0 hPa ESE 6.4 km/h 9.7 km/h 36% 0.0 mm 726 W/m2
16:29 23.3 °C 7 °C 1021.7 hPa NE 4.7 km/h 8 km/h 35% 0.0 mm 719 W/m2
16:34 23.4 °C 7.1 °C 1021.7 hPa ENE 3.2 km/h 3.2 km/h 35% 0.0 mm 726 W/m2
16:39 23.5 °C 6.7 °C 1021.7 hPa NE 7.9 km/h 14.5 km/h 34% 0.0 mm 751 W/m2
16:44 23 °C 6.3 °C 1021.7 hPa SE 3.2 km/h 16.1 km/h 34% 0.0 mm 151 W/m2
16:49 22.7 °C 6.4 °C 1021.3 hPa NE 4.7 km/h 8 km/h 35% 0.0 mm 686 W/m2
16:54 22.8 °C 6.5 °C 1021.7 hPa WNW 3.2 km/h 17.7 km/h 35% 0.0 mm 659 W/m2
16:59 22.8 °C 6.5 °C 1021.3 hPa ENE 6.4 km/h 14.5 km/h 35% 0.0 mm 652 W/m2
17:04 22.9 °C 7 °C 1021.3 hPa NW 6.4 km/h 17.7 km/h 36% 0.0 mm 636 W/m2
17:09 23.1 °C 6.4 °C 1021.3 hPa NW 6.4 km/h 22.5 km/h 34% 0.0 mm 626 W/m2
17:14 23.2 °C 6.9 °C 1021.3 hPa East 1.4 km/h 8 km/h 35% 0.0 mm 622 W/m2
17:20 23.4 °C 6.6 °C 1021.3 hPa NE 4.7 km/h 17.7 km/h 34% 0.0 mm 598 W/m2
17:25 23.3 °C 7 °C 1021.3 hPa East 6.4 km/h 16.1 km/h 35% 0.0 mm 580 W/m2
17:30 23.2 °C 6.9 °C 1021.3 hPa North 1.4 km/h 17.7 km/h 35% 0.0 mm 573 W/m2
17:35 23.1 °C 7.2 °C 1021.3 hPa NNW 3.2 km/h 11.3 km/h 36% 0.0 mm 559 W/m2
17:40 23.1 °C 6.8 °C 1021.3 hPa East 4.7 km/h 8 km/h 35% 0.0 mm 541 W/m2
17:45 23.1 °C 6.4 °C 1021.3 hPa Calm   11.3 km/h 34% 0.0 mm 531 W/m2
17:50 23.1 °C 6.8 °C 1021.3 hPa ENE 1.4 km/h 9.7 km/h 35% 0.0 mm 519 W/m2
17:55 23.1 °C 6.4 °C 1021.0 hPa SSE 3.2 km/h 4.8 km/h 34% 0.0 mm 508 W/m2
18:00 23.3 °C 7 °C 1021.0 hPa ENE 4.7 km/h 9.7 km/h 35% 0.0 mm 492 W/m2
18:05 23.4 °C 7.5 °C 1021.0 hPa East 1.4 km/h 4.8 km/h 36% 0.0 mm 480 W/m2
18:10 23.2 °C 6 °C 1021.0 hPa SE 4.7 km/h 16.1 km/h 33% 0.0 mm 454 W/m2
18:15 22.9 °C 6.2 °C 1021.0 hPa East 9.7 km/h 9.7 km/h 34% 0.0 mm 450 W/m2
18:20 22.9 °C 6.2 °C 1021.0 hPa NE 4.7 km/h 20.9 km/h 34% 0.0 mm 431 W/m2
18:25 23.1 °C 6.4 °C 1021.0 hPa NE 6.4 km/h 6.4 km/h 34% 0.0 mm 394 W/m2
18:30 23.2 °C 7.3 °C 1020.7 hPa ESE 1.4 km/h 6.4 km/h 36% 0.0 mm 360 W/m2
18:35 23.3 °C 6.6 °C 1021.0 hPa East 6.4 km/h 14.5 km/h 34% 0.0 mm 334 W/m2
18:40 23.2 °C 6.5 °C 1021.0 hPa ENE 13 km/h 19.3 km/h 34% 0.0 mm 309 W/m2
18:45 23.1 °C 6.4 °C 1021.0 hPa ESE 3.2 km/h 14.5 km/h 34% 0.0 mm 290 W/m2
18:50 23.1 °C 6.4 °C 1020.7 hPa ESE 6.4 km/h 6.4 km/h 34% 0.0 mm 265 W/m2
18:55 23.1 °C 6.4 °C 1020.7 hPa NE 4.7 km/h 14.5 km/h 34% 0.0 mm 241 W/m2
19:00 23.1 °C 6.4 °C 1020.7 hPa ENE 3.2 km/h 6.4 km/h 34% 0.0 mm 234 W/m2
19:05 23 °C 6.7 °C 1020.7 hPa South 4.7 km/h 6.4 km/h 35% 0.0 mm 241 W/m2
19:10 23.1 °C 6.8 °C 1020.7 hPa ESE 3.2 km/h 4.8 km/h 35% 0.0 mm 257 W/m2
19:15 23.1 °C 6.8 °C 1020.7 hPa ESE 3.2 km/h 6.4 km/h 35% 0.0 mm 271 W/m2
19:20 23 °C 6.7 °C 1020.7 hPa East 1.4 km/h 8 km/h 35% 0.0 mm 269 W/m2
19:25 22.8 °C 6.1 °C 1020.7 hPa ENE 14.3 km/h 19.3 km/h 34% 0.0 mm 253 W/m2
19:30 22.6 °C 5.9 °C 1020.7 hPa ENE 1.4 km/h 4.8 km/h 34% 0.0 mm 237 W/m2
19:35 22.6 °C 6.4 °C 1020.7 hPa ENE 4.7 km/h 19.3 km/h 35% 0.0 mm 221 W/m2
19:40 22.5 °C 6.3 °C 1020.7 hPa NE 3.2 km/h 4.8 km/h 35% 0.0 mm 188 W/m2
19:45 22.3 °C 6.1 °C 1020.7 hPa South 3.2 km/h 14.5 km/h 35% 0.0 mm 156 W/m2
19:50 22.2 °C 6.4 °C 1020.7 hPa East 4.7 km/h 4.8 km/h 36% 0.0 mm 146 W/m2
19:55 22.1 °C 5.9 °C 1020.7 hPa East 11.1 km/h 14.5 km/h 35% 0.0 mm 142 W/m2
20:00 22 °C 6.6 °C 1020.7 hPa East 13 km/h 12.9 km/h 37% 0.0 mm 142 W/m2
20:05 21.9 °C 6.2 °C 1020.7 hPa ESE 3.2 km/h 17.7 km/h 36% 0.0 mm 132 W/m2
20:10 21.8 °C 6.1 °C 1020.7 hPa SE 1.4 km/h 4.8 km/h 36% 0.0 mm 120 W/m2
20:15 21.7 °C 6.4 °C 1020.7 hPa East 3.2 km/h 17.7 km/h 37% 0.0 mm 104 W/m2
20:20 21.6 °C 6.3 °C 1020.7 hPa ENE 4.7 km/h 8 km/h 37% 0.0 mm 91 W/m2
20:25 21.4 °C 6.5 °C 1020.3 hPa ESE 4.7 km/h 12.9 km/h 38% 0.0 mm 81 W/m2
20:30 21.3 °C 6 °C 1020.7 hPa ESE 3.2 km/h 12.9 km/h 37% 0.0 mm 72 W/m2
20:35 21.2 °C 6.3 °C 1020.7 hPa ENE 1.4 km/h 6.4 km/h 38% 0.0 mm 58 W/m2
20:40 20.9 °C 6 °C 1020.3 hPa ESE 3.2 km/h 8 km/h 38% 0.0 mm 47 W/m2
20:45 20.8 °C 6 °C 1020.3 hPa ENE 1.4 km/h 4.8 km/h 38% 0.0 mm 46 W/m2
20:50 20.7 °C 6.2 °C 1020.3 hPa East 4.7 km/h 4.8 km/h 39% 0.0 mm 37 W/m2
20:56 20.4 °C 6.7 °C 1020.3 hPa ESE 1.4 km/h 3.2 km/h 41% 0.0 mm 32 W/m2
21:01 20.2 °C 6.2 °C 1020.7 hPa Calm   4.8 km/h 40% 0.0 mm 26 W/m2
21:06 20.1 °C 6.1 °C 1020.7 hPa Calm   3.2 km/h 40% 0.0 mm 21 W/m2
21:11 19.8 °C 6.5 °C 1020.3 hPa ESE 1.4 km/h 1.6 km/h 42% 0.0 mm 14 W/m2
21:16 19.6 °C 6 °C 1020.3 hPa Calm   3.2 km/h 41% 0.0 mm 11 W/m2
21:21 19.3 °C 6.4 °C 1020.7 hPa NE 4.7 km/h 4.8 km/h 43% 0.0 mm 9 W/m2
21:26 19.1 °C 6.2 °C 1020.7 hPa East 1.4 km/h 3.2 km/h 43% 0.0 mm 7 W/m2
21:31 18.9 °C 6 °C 1020.7 hPa SE 1.4 km/h 3.2 km/h 43% 0.0 mm 5 W/m2
21:36 18.7 °C 6.2 °C 1020.7 hPa SE 1.4 km/h 1.6 km/h 44% 0.0 mm 0 W/m2
21:41 18.4 °C 6.6 °C 1020.7 hPa Calm   1.6 km/h 46% 0.0 mm 0 W/m2
21:46 18.2 °C 6.4 °C 1020.7 hPa Calm     46% 0.0 mm 0 W/m2
21:51 17.9 °C 6.4 °C 1020.7 hPa Calm   1.6 km/h 47% 0.0 mm 0 W/m2
21:56 17.7 °C 6.2 °C 1020.7 hPa Calm   1.6 km/h 47% 0.0 mm 0 W/m2
22:01 17.4 °C 6.3 °C 1020.7 hPa Calm     48% 0.0 mm 0 W/m2
22:06 17.2 °C 6.4 °C 1020.7 hPa ESE 1.4 km/h 1.6 km/h 49% 0.0 mm 0 W/m2
22:11 16.9 °C 6.7 °C 1021.0 hPa ESE 1.4 km/h 3.2 km/h 51% 0.0 mm 0 W/m2
22:16 16.7 °C 6.5 °C 1021.0 hPa Calm   1.6 km/h 51% 0.0 mm 0 W/m2
22:21 16.4 °C 6.8 °C 1020.7 hPa ESE 1.4 km/h 1.6 km/h 53% 0.0 mm 0 W/m2
22:26 16.2 °C 6.6 °C 1021.0 hPa Calm     53% 0.0 mm 0 W/m2
22:31 16 °C 7 °C 1021.0 hPa Calm   1.6 km/h 55% 0.0 mm 0 W/m2
22:36 15.7 °C 6.9 °C 1021.0 hPa Calm   1.6 km/h 56% 0.0 mm 0 W/m2
22:41 15.5 °C 6.8 °C 1021.0 hPa Calm     56% 0.0 mm 0 W/m2
22:46 15.3 °C 6.6 °C 1021.0 hPa Calm     56% 0.0 mm 0 W/m2
22:51 15.1 °C 6.6 °C 1021.0 hPa Calm   1.6 km/h 57% 0.0 mm 0 W/m2
22:56 14.8 °C 6.4 °C 1021.0 hPa Calm     57% 0.0 mm 0 W/m2
23:01 14.7 °C 6.3 °C 1021.0 hPa ESE 1.4 km/h 3.2 km/h 57% 0.0 mm 0 W/m2
23:06 14.6 °C 6.2 °C 1021.0 hPa Calm   1.6 km/h 57% 0.0 mm 0 W/m2
23:11 14.4 °C 6.2 °C 1021.0 hPa ESE 1.4 km/h 3.2 km/h 58% 0.0 mm 0 W/m2
23:16 14.3 °C 6.6 °C 1021.0 hPa ESE 1.4 km/h 3.2 km/h 60% 0.0 mm 0 W/m2
23:21 14.1 °C 6.5 °C 1021.0 hPa Calm     60% 0.0 mm 0 W/m2
23:26 13.9 °C 6.5 °C 1021.0 hPa SW 1.4 km/h 4.8 km/h 61% 0.0 mm 0 W/m2
23:31 13.9 °C 6.5 °C 1021.0 hPa Calm     61% 0.0 mm 0 W/m2
23:37 13.8 °C 6.6 °C 1021.0 hPa Calm   1.6 km/h 62% 0.0 mm 0 W/m2
23:42 13.7 °C 6.5 °C 1021.0 hPa Calm   1.6 km/h 62% 0.0 mm 0 W/m2
23:47 13.6 °C 6.5 °C 1021.0 hPa SW 1.4 km/h 1.6 km/h 62% 0.0 mm 0 W/m2
23:52 13.4 °C 6.3 °C 1021.0 hPa Calm     62% 0.0 mm 0 W/m2
23:57 13.3 °C 6.4 °C 1021.0 hPa Calm     63% 0.0 mm 0 W/m2
Juneau County Weather
Compliments of Weather Underground - 4 mb